Time;durP1;ratioP1;P1;durP2;ratioP2;P2;SDS_P1;SDS_P2;PMS_P1;PMS_P2;Temp;Humidity;BMP_temperature;BMP_pressure;BME280_temperature;BME280_humidity;BME280_pressure;Samples;Min_cycle;Max_cycle;Signal;HPM_P1;HPM_P2
2020/12/11 00:00:35;0.00;0.00;0.62;0.00;0.00;0.62;3.20;2.60;;;20.30;29.00;;;;;;2265585;61;20365;-65
2020/12/11 00:03:20;0.00;0.00;0.62;0.00;0.00;0.62;2.80;2.50;;;20.30;29.00;;;;;;2265481;61;20419;-65
2020/12/11 00:06:04;0.00;0.00;0.62;0.00;0.00;0.62;2.80;2.23;;;20.30;29.60;;;;;;2265616;61;20389;-65
2020/12/11 00:08:49;0.00;0.00;0.62;0.00;0.00;0.62;2.57;2.37;;;20.30;29.00;;;;;;2265479;61;20412;-66
2020/12/11 00:11:34;0.00;0.00;0.62;0.00;0.00;0.62;3.60;3.00;;;20.30;29.00;;;;;;2265415;61;20457;-66
2020/12/11 00:14:20;0.00;0.00;0.62;0.00;0.00;0.62;3.23;2.93;;;20.30;29.00;;;;;;2265807;61;20576;-66
2020/12/11 00:17:05;0.00;0.00;0.62;0.00;0.00;0.62;2.97;2.53;;;20.30;29.00;;;;;;2264930;61;20370;-66
2020/12/11 00:19:49;0.00;0.00;0.62;0.00;0.00;0.62;3.20;2.40;;;20.30;29.00;;;;;;2265949;61;20389;-65
2020/12/11 00:22:34;0.00;0.00;0.62;0.00;0.00;0.62;2.57;2.27;;;20.30;29.00;;;;;;2265446;61;20385;-65
2020/12/11 00:25:18;0.00;0.00;0.62;0.00;0.00;0.62;3.00;2.67;;;20.30;29.00;;;;;;2264783;61;20593;-66
2020/12/11 00:28:03;0.00;0.00;0.62;0.00;0.00;0.62;3.20;2.53;;;20.30;29.00;;;;;;2265666;61;20461;-66
2020/12/11 00:30:48;0.00;0.00;0.62;0.00;0.00;0.62;3.73;2.50;;;20.30;29.10;;;;;;2265376;61;20427;-66
2020/12/11 00:33:33;0.00;0.00;0.62;0.00;0.00;0.62;4.00;3.03;;;20.30;29.10;;;;;;2265501;61;20432;-66
2020/12/11 00:36:17;0.00;0.00;0.62;0.00;0.00;0.62;3.00;2.30;;;20.30;29.00;;;;;;2265673;61;20399;-66
2020/12/11 00:39:03;0.00;0.00;0.62;0.00;0.00;0.62;3.20;2.70;;;20.40;29.20;;;;;;2265572;61;20381;-65
2020/12/11 00:41:47;0.00;0.00;0.62;0.00;0.00;0.62;3.57;2.67;;;20.40;29.20;;;;;;2265744;61;20385;-65
2020/12/11 00:44:32;0.00;0.00;0.62;0.00;0.00;0.62;3.20;2.70;;;20.30;29.10;;;;;;2262312;61;20400;-66
2020/12/11 00:47:17;0.00;0.00;0.62;0.00;0.00;0.62;3.80;2.53;;;20.40;29.20;;;;;;2265351;61;20427;-65
2020/12/11 00:50:02;0.00;0.00;0.62;0.00;0.00;0.62;2.90;2.47;;;20.40;29.20;;;;;;2262359;61;20408;-66
2020/12/11 00:52:47;0.00;0.00;0.62;0.00;0.00;0.62;3.17;2.87;;;20.40;29.20;;;;;;2261691;61;20392;-65
2020/12/11 00:55:32;0.00;0.00;0.62;0.00;0.00;0.62;3.53;2.57;;;20.40;29.20;;;;;;2262275;61;20450;-66
2020/12/11 00:58:17;0.00;0.00;0.62;0.00;0.00;0.62;2.37;1.90;;;20.40;29.70;;;;;;2265658;61;20448;-65
2020/12/11 01:01:01;0.00;0.00;0.62;0.00;0.00;0.62;3.00;2.70;;;20.40;29.70;;;;;;2265537;61;20373;-65
2020/12/11 01:03:46;0.00;0.00;0.62;0.00;0.00;0.62;2.50;2.30;;;20.40;29.30;;;;;;2265594;61;20373;-65
2020/12/11 01:06:31;0.00;0.00;0.62;0.00;0.00;0.62;3.70;2.73;;;20.40;29.30;;;;;;2265127;61;20365;-65
2020/12/11 01:09:15;0.00;0.00;0.62;0.00;0.00;0.62;3.50;2.87;;;20.40;29.30;;;;;;2265277;61;20462;-65
2020/12/11 01:12:00;0.00;0.00;0.62;0.00;0.00;0.62;3.40;2.60;;;20.40;29.30;;;;;;2265388;61;20397;-65
2020/12/11 01:14:45;0.00;0.00;0.62;0.00;0.00;0.62;3.33;2.23;;;20.40;29.40;;;;;;2265181;61;20366;-65
2020/12/11 01:17:29;0.00;0.00;0.62;0.00;0.00;0.62;2.50;2.17;;;20.40;29.40;;;;;;2265228;61;20373;-64
2020/12/11 01:20:15;0.00;0.00;0.62;0.00;0.00;0.62;4.13;2.83;;;20.40;29.30;;;;;;2266183;61;20611;-65
2020/12/11 01:23:00;0.00;0.00;0.62;0.00;0.00;0.62;3.00;2.00;;;20.40;29.30;;;;;;2266013;61;20380;-65
2020/12/11 01:25:44;0.00;0.00;0.62;0.00;0.00;0.62;3.00;2.60;;;20.40;29.30;;;;;;2266149;61;20428;-65
2020/12/11 01:28:29;0.00;0.00;0.62;0.00;0.00;0.62;3.87;2.97;;;20.40;29.30;;;;;;2265882;61;20461;-65
2020/12/11 01:31:17;0.00;0.00;0.62;0.00;0.00;0.62;2.83;2.40;;;20.40;29.30;;;;;;2266074;61;20388;-65
2020/12/11 01:34:02;0.00;0.00;0.62;0.00;0.00;0.62;3.23;2.47;;;20.40;29.30;;;;;;2266141;61;20377;-65
2020/12/11 01:36:48;0.00;0.00;0.62;0.00;0.00;0.62;3.03;2.63;;;20.40;29.20;;;;;;2265796;61;20361;-66
2020/12/11 01:39:33;0.00;0.00;0.62;0.00;0.00;0.62;3.20;2.70;;;20.40;29.30;;;;;;2266123;61;20365;-65
2020/12/11 01:42:18;0.00;0.00;0.62;0.00;0.00;0.62;4.47;3.87;;;20.40;29.20;;;;;;2266128;61;20365;-66
2020/12/11 01:45:04;0.00;0.00;0.62;0.00;0.00;0.62;5.90;5.10;;;20.40;29.10;;;;;;2265859;61;20404;-66
2020/12/11 01:47:49;0.00;0.00;0.62;0.00;0.00;0.62;6.80;5.40;;;20.40;29.00;;;;;;2266040;61;20596;-67
2020/12/11 01:50:34;0.00;0.00;0.62;0.00;0.00;0.62;7.80;5.27;;;20.40;28.80;;;;;;2265928;61;20389;-67
2020/12/11 01:53:22;0.00;0.00;0.62;0.00;0.00;0.62;6.20;5.27;;;20.40;28.80;;;;;;2266081;61;20361;-66
2020/12/11 01:56:06;0.00;0.00;0.62;0.00;0.00;0.62;7.93;6.43;;;20.40;28.70;;;;;;2265983;61;20369;-66
2020/12/11 01:58:59;0.00;0.00;0.62;0.00;0.00;0.62;8.47;6.50;;;20.40;28.60;;;;;;2265833;61;20756;-67
2020/12/11 02:01:46;0.00;0.00;0.62;0.00;0.00;0.62;7.00;6.30;;;20.30;28.40;;;;;;2266085;61;20573;-66
2020/12/11 02:04:33;0.00;0.00;0.62;0.00;0.00;0.62;6.50;5.70;;;20.30;28.40;;;;;;2255525;61;650417;-66
2020/12/11 02:07:22;0.00;0.00;0.62;0.00;0.00;0.62;9.53;7.20;;;20.30;28.30;;;;;;2265841;61;20381;-66
2020/12/11 02:10:09;0.00;0.00;0.62;0.00;0.00;0.62;9.00;7.00;;;20.30;28.20;;;;;;2266083;61;20401;-66
2020/12/11 02:12:54;0.00;0.00;0.62;0.00;0.00;0.62;8.73;6.73;;;20.20;28.10;;;;;;2266024;61;20589;-66
2020/12/11 02:15:41;0.00;0.00;0.62;0.00;0.00;0.62;7.87;6.67;;;20.20;28.10;;;;;;2266159;61;20619;-66
2020/12/11 02:18:26;0.00;0.00;0.62;0.00;0.00;0.62;10.60;7.30;;;20.20;28.00;;;;;;2265648;61;20453;-66
2020/12/11 02:21:10;0.00;0.00;0.62;0.00;0.00;0.62;10.30;6.93;;;20.20;28.00;;;;;;2265977;61;20354;-66
2020/12/11 02:23:56;0.00;0.00;0.62;0.00;0.00;0.62;11.10;7.67;;;20.10;27.80;;;;;;2266211;61;20584;-66
2020/12/11 02:26:40;0.00;0.00;0.62;0.00;0.00;0.62;8.77;7.50;;;20.10;27.80;;;;;;2266041;61;20686;-66
2020/12/11 02:29:26;0.00;0.00;0.62;0.00;0.00;0.62;10.70;7.97;;;20.10;27.70;;;;;;2265739;61;20603;-66
2020/12/11 02:32:14;0.00;0.00;0.62;0.00;0.00;0.62;9.90;7.90;;;20.00;27.60;;;;;;2266169;61;20401;-66
2020/12/11 02:34:59;0.00;0.00;0.62;0.00;0.00;0.62;11.87;8.50;;;20.00;27.50;;;;;;2266177;61;20761;-65
2020/12/11 02:37:43;0.00;0.00;0.62;0.00;0.00;0.62;9.97;8.27;;;19.90;27.30;;;;;;2265978;61;20508;-66
2020/12/11 02:40:29;0.00;0.00;0.62;0.00;0.00;0.62;10.13;7.00;;;19.90;27.20;;;;;;2266112;61;20389;-65
2020/12/11 02:43:13;0.00;0.00;0.62;0.00;0.00;0.62;11.70;8.87;;;19.90;27.20;;;;;;2262729;61;20369;-66
2020/12/11 02:45:58;0.00;0.00;0.62;0.00;0.00;0.62;11.30;8.33;;;19.80;27.00;;;;;;2266120;61;20430;-65
2020/12/11 02:48:42;0.00;0.00;0.62;0.00;0.00;0.62;10.73;8.20;;;19.80;26.90;;;;;;2265983;61;20385;-67
2020/12/11 02:51:27;0.00;0.00;0.62;0.00;0.00;0.62;11.63;8.47;;;19.70;26.80;;;;;;2265810;61;20760;-66
2020/12/11 02:54:11;0.00;0.00;0.62;0.00;0.00;0.62;10.63;8.00;;;19.70;26.80;;;;;;2266096;61;20420;-66
2020/12/11 02:56:57;0.00;0.00;0.62;0.00;0.00;0.62;11.30;8.80;;;19.60;26.80;;;;;;2265959;61;20714;-66
2020/12/11 02:59:41;0.00;0.00;0.62;0.00;0.00;0.62;9.43;8.37;;;19.60;26.80;;;;;;2265993;61;20626;-66
2020/12/11 03:02:26;0.00;0.00;0.62;0.00;0.00;0.62;8.57;7.13;;;19.50;26.70;;;;;;2266019;61;20360;-66
2020/12/11 03:05:10;0.00;0.00;0.62;0.00;0.00;0.62;9.13;8.03;;;19.50;26.90;;;;;;2265808;61;20400;-65
2020/12/11 03:07:55;0.00;0.00;0.62;0.00;0.00;0.62;9.70;7.67;;;19.40;26.80;;;;;;2265870;61;20397;-66
2020/12/11 03:10:39;0.00;0.00;0.62;0.00;0.00;0.62;9.70;8.00;;;19.40;26.80;;;;;;2265889;61;20730;-66
2020/12/11 03:13:25;0.00;0.00;0.62;0.00;0.00;0.62;13.13;8.97;;;19.40;26.70;;;;;;2265804;61;20408;-66
2020/12/11 03:16:10;0.00;0.00;0.62;0.00;0.00;0.62;9.70;8.20;;;19.30;26.50;;;;;;2265890;61;20369;-64
2020/12/11 03:18:54;0.00;0.00;0.62;0.00;0.00;0.62;10.47;8.30;;;19.30;26.40;;;;;;2262788;61;20385;-65
2020/12/11 03:21:39;0.00;0.00;0.62;0.00;0.00;0.62;10.70;8.40;;;19.30;26.50;;;;;;2265850;61;20361;-66
2020/12/11 03:24:24;0.00;0.00;0.62;0.00;0.00;0.62;11.67;8.23;;;19.20;26.40;;;;;;2266178;61;20361;-66
2020/12/11 03:27:09;0.00;0.00;0.62;0.00;0.00;0.62;11.07;8.93;;;19.20;26.40;;;;;;2265681;61;20477;-66
2020/12/11 03:29:55;0.00;0.00;0.62;0.00;0.00;0.62;10.70;8.37;;;19.10;26.30;;;;;;2265856;61;20419;-66
2020/12/11 03:32:39;0.00;0.00;0.62;0.00;0.00;0.62;9.43;7.97;;;19.10;26.20;;;;;;2265925;61;20369;-65
2020/12/11 03:35:24;0.00;0.00;0.62;0.00;0.00;0.62;13.63;10.00;;;19.00;26.10;;;;;;2265749;61;20353;-67
2020/12/11 03:38:09;0.00;0.00;0.62;0.00;0.00;0.62;9.70;7.77;;;19.00;26.60;;;;;;2265882;61;20376;-66
2020/12/11 03:40:53;0.00;0.00;0.62;0.00;0.00;0.62;9.50;7.53;;;18.90;26.20;;;;;;2262533;61;20357;-65
2020/12/11 03:43:38;0.00;0.00;0.62;0.00;0.00;0.62;10.73;8.30;;;18.90;26.30;;;;;;2265776;61;20424;-66
2020/12/11 03:46:23;0.00;0.00;0.62;0.00;0.00;0.62;14.03;9.80;;;18.90;26.00;;;;;;2265809;61;20372;-66
2020/12/11 03:49:08;0.00;0.00;0.62;0.00;0.00;0.62;8.13;7.23;;;18.80;26.00;;;;;;2265708;61;20449;-66
2020/12/11 03:51:53;0.00;0.00;0.62;0.00;0.00;0.62;10.00;8.27;;;18.80;26.20;;;;;;2265852;61;20358;-65
2020/12/11 03:54:37;0.00;0.00;0.62;0.00;0.00;0.62;9.90;7.67;;;18.70;26.30;;;;;;2265938;61;20416;-66
2020/12/11 03:57:22;0.00;0.00;0.62;0.00;0.00;0.62;9.37;7.83;;;18.70;26.40;;;;;;2265589;61;20744;-66
2020/12/11 04:00:07;0.00;0.00;0.62;0.00;0.00;0.62;11.00;8.80;;;18.70;26.40;;;;;;2265856;61;20715;-65
2020/12/11 04:02:52;0.00;0.00;0.62;0.00;0.00;0.62;9.47;8.10;;;18.70;26.40;;;;;;2265864;61;20361;-65
2020/12/11 04:05:37;0.00;0.00;0.62;0.00;0.00;0.62;8.70;7.73;;;18.60;26.40;;;;;;2265664;61;20777;-65
2020/12/11 04:08:21;0.00;0.00;0.62;0.00;0.00;0.62;8.83;7.23;;;18.60;26.50;;;;;;2265691;61;20411;-66
2020/12/11 04:11:08;0.00;0.00;0.62;0.00;0.00;0.62;11.40;8.80;;;18.60;26.60;;;;;;2265759;61;20393;-66
2020/12/11 04:13:52;0.00;0.00;0.62;0.00;0.00;0.62;9.40;7.70;;;18.60;26.50;;;;;;2265844;61;20397;-65
2020/12/11 04:16:37;0.00;0.00;0.62;0.00;0.00;0.62;7.43;6.50;;;18.60;26.60;;;;;;2265664;61;20486;-66
2020/12/11 04:19:22;0.00;0.00;0.62;0.00;0.00;0.62;9.90;8.17;;;18.60;26.60;;;;;;2265561;61;20461;-66
2020/12/11 04:22:07;0.00;0.00;0.62;0.00;0.00;0.62;9.27;7.67;;;18.60;26.70;;;;;;2265825;61;20737;-66
2020/12/11 04:24:52;0.00;0.00;0.62;0.00;0.00;0.62;9.30;8.40;;;18.60;26.60;;;;;;2265785;61;20876;-66
2020/12/11 04:27:36;0.00;0.00;0.62;0.00;0.00;0.62;10.23;7.23;;;18.60;26.70;;;;;;2265542;61;20397;-66
2020/12/11 04:30:21;0.00;0.00;0.62;0.00;0.00;0.62;8.70;7.43;;;18.50;26.70;;;;;;2262457;61;20440;-66
2020/12/11 04:33:06;0.00;0.00;0.62;0.00;0.00;0.62;7.60;6.90;;;18.50;26.80;;;;;;2265795;61;20413;-65
2020/12/11 04:35:52;0.00;0.00;0.62;0.00;0.00;0.62;7.70;6.87;;;18.50;26.80;;;;;;2265643;61;20469;-66
2020/12/11 04:38:36;0.00;0.00;0.62;0.00;0.00;0.62;7.50;6.67;;;18.50;26.80;;;;;;2265700;61;20388;-66
2020/12/11 04:41:25;0.00;0.00;0.62;0.00;0.00;0.62;7.77;6.80;;;18.50;26.70;;;;;;2265575;61;20396;-66
2020/12/11 04:44:10;0.00;0.00;0.62;0.00;0.00;0.62;8.93;7.17;;;18.50;26.70;;;;;;2265778;61;20365;-65
2020/12/11 04:46:56;0.00;0.00;0.62;0.00;0.00;0.62;7.43;6.47;;;18.50;26.80;;;;;;2265617;61;20760;-66
2020/12/11 04:49:42;0.00;0.00;0.62;0.00;0.00;0.62;7.63;6.77;;;18.50;26.80;;;;;;2265367;61;20536;-66
2020/12/11 04:52:35;0.00;0.00;0.62;0.00;0.00;0.62;7.63;6.83;;;18.50;26.80;;;;;;2265757;61;20365;-65
2020/12/11 04:55:20;0.00;0.00;0.62;0.00;0.00;0.62;9.20;7.73;;;18.50;27.30;;;;;;2265859;61;20734;-65
2020/12/11 04:58:05;0.00;0.00;0.62;0.00;0.00;0.62;8.30;6.47;;;18.50;26.80;;;;;;2262514;61;20392;-66
2020/12/11 05:00:53;0.00;0.00;0.62;0.00;0.00;0.62;8.60;6.53;;;18.50;26.70;;;;;;2265872;61;20416;-66
2020/12/11 05:03:37;0.00;0.00;0.62;0.00;0.00;0.62;8.77;6.50;;;18.50;26.70;;;;;;2265623;61;20373;-66
2020/12/11 05:06:22;0.00;0.00;0.62;0.00;0.00;0.62;8.57;7.73;;;18.50;26.80;;;;;;2265788;61;20349;-66
2020/12/11 05:09:14;0.00;0.00;0.62;0.00;0.00;0.62;8.40;7.57;;;18.50;26.70;;;;;;2265777;61;20381;-65
2020/12/11 05:11:58;0.00;0.00;0.62;0.00;0.00;0.62;8.70;7.60;;;18.40;26.50;;;;;;2265745;61;20393;-66
2020/12/11 05:14:43;0.00;0.00;0.62;0.00;0.00;0.62;8.03;6.63;;;18.40;26.50;;;;;;2262642;61;20361;-67
2020/12/11 05:17:29;0.00;0.00;0.62;0.00;0.00;0.62;9.70;6.47;;;18.40;26.50;;;;;;2262511;61;20454;-66
2020/12/11 05:20:14;0.00;0.00;0.62;0.00;0.00;0.62;9.73;7.73;;;18.40;26.50;;;;;;2265709;61;20742;-66
2020/12/11 05:23:07;0.00;0.00;0.62;0.00;0.00;0.62;8.80;6.93;;;18.40;26.40;;;;;;2265847;61;20364;-67
2020/12/11 05:25:55;0.00;0.00;0.62;0.00;0.00;0.62;7.20;6.20;;;18.40;26.40;;;;;;2265602;61;20737;-66
2020/12/11 05:28:44;0.00;0.00;0.62;0.00;0.00;0.62;6.73;6.03;;;18.40;26.40;;;;;;2265665;61;20665;-66
2020/12/11 05:31:29;0.00;0.00;0.62;0.00;0.00;0.62;8.30;6.37;;;18.30;26.30;;;;;;2265683;61;20630;-65
2020/12/11 05:34:14;0.00;0.00;0.62;0.00;0.00;0.62;7.90;6.97;;;18.30;26.30;;;;;;2265192;61;20381;-66
2020/12/11 05:36:59;0.00;0.00;0.62;0.00;0.00;0.62;7.33;6.40;;;18.30;26.40;;;;;;2265706;61;20717;-66
2020/12/11 05:39:44;0.00;0.00;0.62;0.00;0.00;0.62;7.20;6.10;;;18.30;26.50;;;;;;2262614;61;20357;-65
2020/12/11 05:42:29;0.00;0.00;0.62;0.00;0.00;0.62;7.33;6.10;;;18.30;26.40;;;;;;2265701;61;20369;-66
2020/12/11 05:45:18;0.00;0.00;0.62;0.00;0.00;0.62;7.47;5.83;;;18.30;26.40;;;;;;2265750;61;20369;-65
2020/12/11 05:48:05;0.00;0.00;0.62;0.00;0.00;0.62;13.00;5.63;;;18.30;26.50;;;;;;2265421;61;20420;-65
2020/12/11 05:50:50;0.00;0.00;0.62;0.00;0.00;0.62;8.70;5.23;;;18.30;26.50;;;;;;2265668;61;20381;-66
2020/12/11 05:53:35;0.00;0.00;0.62;0.00;0.00;0.62;7.50;6.67;;;18.20;26.40;;;;;;2265747;61;20575;-66
2020/12/11 05:56:21;0.00;0.00;0.62;0.00;0.00;0.62;6.40;5.70;;;18.20;26.30;;;;;;2265418;61;20753;-66
2020/12/11 05:59:08;0.00;0.00;0.62;0.00;0.00;0.62;7.10;5.97;;;18.20;26.30;;;;;;2265762;61;20393;-66
2020/12/11 06:01:56;0.00;0.00;0.62;0.00;0.00;0.62;6.83;5.93;;;18.20;26.40;;;;;;2265732;61;20365;-66
2020/12/11 06:04:44;0.00;0.00;0.62;0.00;0.00;0.62;8.20;5.90;;;18.20;26.20;;;;;;2265871;61;20397;-66
2020/12/11 06:07:31;0.00;0.00;0.62;0.00;0.00;0.62;7.00;6.30;;;18.20;26.20;;;;;;2266244;61;20422;-66
2020/12/11 06:10:17;0.00;0.00;0.62;0.00;0.00;0.62;6.30;4.80;;;18.20;26.30;;;;;;2266041;61;20381;-65
2020/12/11 06:13:03;0.00;0.00;0.62;0.00;0.00;0.62;5.63;5.00;;;18.20;26.30;;;;;;2266379;61;20412;-65
2020/12/11 06:15:50;0.00;0.00;0.62;0.00;0.00;0.62;6.30;5.70;;;18.20;26.30;;;;;;2263181;61;20881;-66
2020/12/11 06:18:38;0.00;0.00;0.62;0.00;0.00;0.62;6.93;5.97;;;18.20;26.10;;;;;;2266060;61;20527;-66
2020/12/11 06:21:23;0.00;0.00;0.62;0.00;0.00;0.62;8.77;6.30;;;18.10;26.00;;;;;;2266356;61;20358;-66
2020/12/11 06:24:30;0.00;0.00;0.62;0.00;0.00;0.62;5.80;4.53;;;18.10;25.80;;;;;;2266355;61;20404;-65
2020/12/11 06:27:14;0.00;0.00;0.62;0.00;0.00;0.62;5.40;4.87;;;18.10;25.90;;;;;;2266229;61;20362;-65
2020/12/11 06:30:23;0.00;0.00;0.62;0.00;0.00;0.62;5.63;5.00;;;18.10;25.90;;;;;;2266140;61;20423;-66
2020/12/11 06:33:09;0.00;0.00;0.62;0.00;0.00;0.62;5.80;4.80;;;18.00;25.90;;;;;;2266162;61;20366;-66
2020/12/11 06:35:57;0.00;0.00;0.62;0.00;0.00;0.62;5.80;5.20;;;18.00;26.00;;;;;;2266308;61;20361;-66
2020/12/11 06:38:47;0.00;0.00;0.62;0.00;0.00;0.62;5.60;5.00;;;18.00;26.00;;;;;;2266253;61;20597;-66
2020/12/11 06:41:38;0.00;0.00;0.62;0.00;0.00;0.62;6.07;5.00;;;18.00;26.00;;;;;;2266112;61;20389;-66
2020/12/11 06:44:23;0.00;0.00;0.62;0.00;0.00;0.62;5.27;4.57;;;18.00;26.00;;;;;;2266262;61;20366;-66
2020/12/11 06:47:10;0.00;0.00;0.62;0.00;0.00;0.62;5.30;4.80;;;17.90;26.00;;;;;;2265982;61;20404;-66
2020/12/11 06:50:06;0.00;0.00;0.62;0.00;0.00;0.62;7.80;6.10;;;17.90;26.00;;;;;;2266109;61;20685;-66
2020/12/11 06:52:51;0.00;0.00;0.62;0.00;0.00;0.62;5.30;4.80;;;17.90;25.70;;;;;;2265226;61;20366;-74
2020/12/11 06:55:49;0.00;0.00;0.62;0.00;0.00;0.62;5.53;5.00;;;17.90;25.80;;;;;;2265650;61;20508;-69
2020/12/11 06:58:33;0.00;0.00;0.62;0.00;0.00;0.62;7.27;6.20;;;17.90;25.90;;;;;;2266023;61;20473;-69
2020/12/11 07:01:18;0.00;0.00;0.62;0.00;0.00;0.62;5.33;4.43;;;17.90;25.90;;;;;;2266055;61;20357;-64
2020/12/11 07:04:02;0.00;0.00;0.62;0.00;0.00;0.62;6.87;6.20;;;17.90;26.00;;;;;;2266002;61;20373;-70
2020/12/11 07:06:49;0.00;0.00;0.62;0.00;0.00;0.62;7.20;4.80;;;17.90;26.00;;;;;;2265884;61;20650;-64
2020/12/11 07:09:38;0.00;0.00;0.62;0.00;0.00;0.62;5.80;5.00;;;17.80;25.90;;;;;;2265832;61;20496;-64
2020/12/11 07:12:24;0.00;0.00;0.62;0.00;0.00;0.62;5.30;4.80;;;17.80;25.90;;;;;;2265992;61;20366;-70
2020/12/11 07:15:19;0.00;0.00;0.62;0.00;0.00;0.62;6.20;5.60;;;17.80;25.90;;;;;;2266050;61;20734;-67
2020/12/11 07:18:12;0.00;0.00;0.62;0.00;0.00;0.62;5.63;5.13;;;17.80;25.80;;;;;;2265630;61;20611;-65
2020/12/11 07:20:58;0.00;0.00;0.62;0.00;0.00;0.62;5.83;4.63;;;17.80;25.80;;;;;;2266007;61;20730;-64
2020/12/11 07:23:44;0.00;0.00;0.62;0.00;0.00;0.62;5.20;4.70;;;17.80;25.90;;;;;;2265826;61;20393;-69
2020/12/11 07:26:29;0.00;0.00;0.62;0.00;0.00;0.62;5.80;4.43;;;17.80;26.10;;;;;;2265845;61;20443;-70
2020/12/11 07:29:16;0.00;0.00;0.62;0.00;0.00;0.62;3.97;3.60;;;17.80;26.20;;;;;;2265850;61;20412;-70
2020/12/11 07:32:01;0.00;0.00;0.62;0.00;0.00;0.62;3.77;3.47;;;17.80;26.30;;;;;;2265743;61;20388;-71
2020/12/11 07:34:45;0.00;0.00;0.62;0.00;0.00;0.62;3.50;3.20;;;17.80;26.40;;;;;;2265913;61;20641;-66
2020/12/11 07:37:30;0.00;0.00;0.62;0.00;0.00;0.62;3.60;3.30;;;17.80;26.50;;;;;;2265850;61;20753;-66
2020/12/11 07:40:17;0.00;0.00;0.62;0.00;0.00;0.62;3.90;3.43;;;17.90;26.60;;;;;;2265747;61;20754;-67
2020/12/11 07:43:03;0.00;0.00;0.62;0.00;0.00;0.62;3.97;3.57;;;17.90;26.70;;;;;;2265913;61;20350;-67
2020/12/11 07:45:48;0.00;0.00;0.62;0.00;0.00;0.62;3.53;3.13;;;17.90;26.70;;;;;;2266029;61;20436;-67
2020/12/11 07:48:33;0.00;0.00;0.62;0.00;0.00;0.62;3.40;3.00;;;18.00;26.80;;;;;;2265791;61;20405;-68
2020/12/11 07:51:18;0.00;0.00;0.62;0.00;0.00;0.62;3.43;3.13;;;18.00;26.80;;;;;;2265870;61;20380;-63
2020/12/11 07:54:03;0.00;0.00;0.62;0.00;0.00;0.62;2.67;2.40;;;18.00;26.90;;;;;;2265344;61;20362;-68
2020/12/11 07:56:48;0.00;0.00;0.62;0.00;0.00;0.62;3.33;2.67;;;18.10;27.00;;;;;;2265761;61;20602;-66
2020/12/11 07:59:33;0.00;0.00;0.62;0.00;0.00;0.62;2.63;2.37;;;18.10;27.00;;;;;;2265843;61;20386;-68
2020/12/11 08:02:18;0.00;0.00;0.62;0.00;0.00;0.62;3.23;2.93;;;18.10;27.00;;;;;;2265762;61;20571;-69
2020/12/11 08:05:06;0.00;0.00;0.62;0.00;0.00;0.62;2.60;2.40;;;18.20;27.10;;;;;;2265866;61;20373;-71
2020/12/11 08:07:52;0.00;0.00;0.62;0.00;0.00;0.62;2.27;2.00;;;18.20;27.20;;;;;;2265688;61;20772;-71
2020/12/11 08:10:40;0.00;0.00;0.62;0.00;0.00;0.62;3.17;2.53;;;18.20;27.20;;;;;;2265295;61;20661;-67
2020/12/11 08:13:26;0.00;0.00;0.62;0.00;0.00;0.62;2.47;2.27;;;18.30;27.80;;;;;;2265897;61;20554;-67
2020/12/11 08:16:11;0.00;0.00;0.62;0.00;0.00;0.62;2.80;2.57;;;18.30;27.80;;;;;;2265483;61;20801;-67
2020/12/11 08:18:57;0.00;0.00;0.62;0.00;0.00;0.62;2.40;2.20;;;18.30;27.20;;;;;;2265798;61;20385;-69
2020/12/11 08:21:42;0.00;0.00;0.62;0.00;0.00;0.62;3.17;2.30;;;18.30;27.30;;;;;;2265833;61;20425;-70
2020/12/11 08:24:28;0.00;0.00;0.62;0.00;0.00;0.62;2.57;2.37;;;18.40;27.30;;;;;;2265737;61;20396;-69
2020/12/11 08:27:21;0.00;0.00;0.62;0.00;0.00;0.62;2.17;1.97;;;18.40;27.30;;;;;;2265692;61;20733;-69
2020/12/11 08:30:12;0.00;0.00;0.62;0.00;0.00;0.62;2.43;2.23;;;18.40;27.30;;;;;;2265874;61;20393;-66
2020/12/11 08:32:56;0.00;0.00;0.62;0.00;0.00;0.62;2.37;2.17;;;18.40;27.30;;;;;;2265712;61;20361;-66
2020/12/11 08:35:41;0.00;0.00;0.62;0.00;0.00;0.62;3.67;2.80;;;18.50;27.40;;;;;;2265829;61;20436;-67
2020/12/11 08:38:26;0.00;0.00;0.62;0.00;0.00;0.62;3.03;2.40;;;18.50;27.40;;;;;;2265453;61;20641;-67
2020/12/11 08:41:17;0.00;0.00;0.62;0.00;0.00;0.62;2.30;2.10;;;18.50;27.70;;;;;;2265716;61;20400;-68
2020/12/11 08:44:04;0.00;0.00;0.62;0.00;0.00;0.62;2.50;2.30;;;18.50;27.40;;;;;;2265732;61;20423;-66
2020/12/11 08:50:21;0.00;0.00;0.62;0.00;0.00;0.62;2.50;2.23;;;18.60;27.50;;;;;;2265666;61;20361;-68
2020/12/11 08:53:02;0.00;0.00;0.62;0.00;0.00;0.62;2.33;2.10;;;18.60;27.50;;;;;;2265495;61;20370;-69
2020/12/11 08:55:47;0.00;0.00;0.62;0.00;0.00;0.62;2.40;2.10;;;18.60;27.50;;;;;;2265739;61;20645;-63
2020/12/11 08:58:32;0.00;0.00;0.62;0.00;0.00;0.62;2.77;2.43;;;18.70;27.60;;;;;;2265684;61;20384;-69
2020/12/11 09:01:17;0.00;0.00;0.62;0.00;0.00;0.62;3.70;2.40;;;18.70;27.60;;;;;;2265466;61;20361;-70
2020/12/11 09:04:02;0.00;0.00;0.62;0.00;0.00;0.62;2.10;1.90;;;18.70;27.60;;;;;;2265628;61;20388;-68
2020/12/11 09:06:47;0.00;0.00;0.62;0.00;0.00;0.62;2.20;2.00;;;18.70;27.60;;;;;;2265587;61;20443;-67
2020/12/11 09:09:31;0.00;0.00;0.62;0.00;0.00;0.62;3.07;2.57;;;18.80;27.70;;;;;;2265499;61;20737;-67
2020/12/11 09:12:16;0.00;0.00;0.62;0.00;0.00;0.62;2.07;1.87;;;18.70;27.60;;;;;;2265708;61;20446;-70
2020/12/11 09:15:00;0.00;0.00;0.62;0.00;0.00;0.62;1.80;1.57;;;18.80;27.60;;;;;;2265421;61;20446;-63
2020/12/11 09:17:45;0.00;0.00;0.62;0.00;0.00;0.62;2.90;1.93;;;18.80;27.60;;;;;;2265582;61;20594;-70
2020/12/11 09:20:31;0.00;0.00;0.62;0.00;0.00;0.62;3.10;2.00;;;18.80;27.60;;;;;;2265660;61;20361;-63
2020/12/11 09:23:16;0.00;0.00;0.62;0.00;0.00;0.62;2.90;2.10;;;18.80;27.60;;;;;;2265524;61;20365;-67
2020/12/11 09:26:00;0.00;0.00;0.62;0.00;0.00;0.62;2.37;2.10;;;18.80;27.60;;;;;;2265608;61;20400;-67
2020/12/11 09:28:49;0.00;0.00;0.62;0.00;0.00;0.62;1.93;1.77;;;18.90;27.70;;;;;;2265526;61;20381;-64
2020/12/11 09:31:35;0.00;0.00;0.62;0.00;0.00;0.62;2.13;1.93;;;18.90;27.70;;;;;;2265380;61;20424;-63
2020/12/11 09:34:20;0.00;0.00;0.62;0.00;0.00;0.62;2.80;2.30;;;18.90;27.70;;;;;;2265658;61;20412;-64
2020/12/11 09:37:05;0.00;0.00;0.62;0.00;0.00;0.62;2.17;1.80;;;18.90;27.60;;;;;;2265344;61;20745;-63
2020/12/11 09:39:49;0.00;0.00;0.62;0.00;0.00;0.62;2.10;1.90;;;18.90;27.60;;;;;;2265949;61;20864;-64
2020/12/11 09:42:51;0.00;0.00;0.62;0.00;0.00;0.62;2.43;2.23;;;18.90;27.50;;;;;;2266296;61;20399;-68
2020/12/11 09:45:47;0.00;0.00;0.62;0.00;0.00;0.62;1.60;1.50;;;18.90;27.50;;;;;;2265909;61;20357;-67
2020/12/11 09:48:51;0.00;0.00;0.62;0.00;0.00;0.62;2.60;2.40;;;19.00;27.60;;;;;;2262888;61;20372;-66
2020/12/11 09:54:31;0.00;0.00;0.62;0.00;0.00;0.62;2.50;2.30;;;19.00;27.70;;;;;;2266306;61;20361;-65
2020/12/11 09:57:16;0.00;0.00;0.62;0.00;0.00;0.62;2.50;2.17;;;19.00;27.70;;;;;;2265963;61;20361;-67
2020/12/11 10:00:03;0.00;0.00;0.62;0.00;0.00;0.62;2.10;1.90;;;19.00;27.70;;;;;;2266105;61;20380;-65
2020/12/11 10:05:41;0.00;0.00;0.62;0.00;0.00;0.62;1.70;1.50;;;19.00;27.80;;;;;;2266288;61;20437;-66
2020/12/11 10:08:26;0.00;0.00;0.62;0.00;0.00;0.62;2.23;1.90;;;19.10;27.80;;;;;;2266100;61;20777;-66
2020/12/11 10:11:18;0.00;0.00;0.62;0.00;0.00;0.62;2.20;1.77;;;19.10;27.80;;;;;;2266020;61;20377;-66
2020/12/11 10:17:00;0.00;0.00;0.62;0.00;0.00;0.62;2.07;1.87;;;19.10;27.80;;;;;;2266060;61;20541;-67
2020/12/11 10:19:48;0.00;0.00;0.62;0.00;0.00;0.62;2.20;2.00;;;19.10;27.80;;;;;;2266205;61;20728;-66
2020/12/11 10:22:33;0.00;0.00;0.62;0.00;0.00;0.62;2.50;2.17;;;19.10;27.80;;;;;;2265942;61;20437;-64
2020/12/11 10:25:17;0.00;0.00;0.62;0.00;0.00;0.62;2.13;1.87;;;19.10;27.80;;;;;;2266196;61;20431;-66
2020/12/11 10:28:03;0.00;0.00;0.62;0.00;0.00;0.62;1.70;1.60;;;19.20;27.80;;;;;;2266081;61;20381;-66
2020/12/11 10:30:49;0.00;0.00;0.62;0.00;0.00;0.62;2.00;1.80;;;19.20;27.80;;;;;;2265884;61;20382;-64
2020/12/11 10:33:33;0.00;0.00;0.62;0.00;0.00;0.62;1.80;1.50;;;19.20;27.80;;;;;;2266188;61;20365;-66
2020/12/11 10:36:18;0.00;0.00;0.62;0.00;0.00;0.62;2.10;1.90;;;19.20;27.80;;;;;;2265853;61;20443;-63
2020/12/11 10:39:04;0.00;0.00;0.62;0.00;0.00;0.62;1.77;1.53;;;19.20;27.80;;;;;;2263012;61;20373;-63
2020/12/11 10:41:48;0.00;0.00;0.62;0.00;0.00;0.62;1.90;1.80;;;19.20;27.80;;;;;;2266176;61;20436;-62
2020/12/11 10:44:33;0.00;0.00;0.62;0.00;0.00;0.62;2.27;1.97;;;19.20;28.30;;;;;;2265929;61;20361;-71
2020/12/11 10:47:18;0.00;0.00;0.62;0.00;0.00;0.62;2.13;1.77;;;19.20;27.70;;;;;;2265968;61;20444;-69
2020/12/11 10:50:03;0.00;0.00;0.62;0.00;0.00;0.62;1.90;1.70;;;19.30;27.80;;;;;;2265904;61;20365;-70
2020/12/11 10:52:47;0.00;0.00;0.62;0.00;0.00;0.62;2.00;1.67;;;19.30;27.80;;;;;;2266053;61;20377;-70
2020/12/11 10:55:32;0.00;0.00;0.62;0.00;0.00;0.62;2.47;1.97;;;19.30;27.80;;;;;;2266280;61;20365;-69
2020/12/11 10:58:17;0.00;0.00;0.62;0.00;0.00;0.62;1.93;1.70;;;19.30;27.80;;;;;;2265996;61;20757;-69
2020/12/11 11:01:05;0.00;0.00;0.62;0.00;0.00;0.62;3.20;1.70;;;19.30;27.80;;;;;;2266251;61;20358;-71
2020/12/11 11:03:50;0.00;0.00;0.62;0.00;0.00;0.62;2.83;1.80;;;19.30;27.80;;;;;;2266262;61;20373;-70
2020/12/11 11:12:26;0.00;0.00;0.62;0.00;0.00;0.62;2.20;2.00;;;19.40;27.90;;;;;;2266232;61;20385;-69